createdAt,value
2022-12-04T00:00:32.648Z,75.82
2022-12-04T00:02:59.474Z,75.86
2022-12-04T00:05:26.279Z,75.82
2022-12-04T00:07:53.117Z,75.60
2022-12-04T00:10:20.061Z,76.15
2022-12-04T00:12:46.866Z,75.94
2022-12-04T00:15:25.197Z,75.69
2022-12-04T00:17:52.899Z,75.76
2022-12-04T00:20:19.895Z,76.22
2022-12-04T00:22:46.951Z,75.53
2022-12-04T00:25:13.749Z,76.07
2022-12-04T00:27:40.706Z,75.50
2022-12-04T00:30:08.414Z,75.70
2022-12-04T00:32:35.405Z,75.70
2022-12-04T00:35:02.299Z,76.06
2022-12-04T00:37:29.238Z,75.89
2022-12-04T00:39:56.221Z,75.87
2022-12-04T00:42:23.298Z,75.84
2022-12-04T00:44:50.169Z,76.81
2022-12-04T00:47:16.944Z,76.53
2022-12-04T00:49:43.806Z,76.29
2022-12-04T00:52:10.628Z,75.81
2022-12-04T00:54:37.428Z,75.96
2022-12-04T00:57:04.346Z,76.63
2022-12-04T00:59:31.160Z,75.78
2022-12-04T01:01:57.969Z,75.69
2022-12-04T01:04:24.784Z,76.09
2022-12-04T01:06:51.676Z,76.51
2022-12-04T01:09:18.884Z,76.48
2022-12-04T01:11:46.062Z,76.18
2022-12-04T01:14:12.887Z,76.25
2022-12-04T01:16:40.609Z,75.81
2022-12-04T01:19:11.295Z,75.88
2022-12-04T01:21:39.060Z,76.54
2022-12-04T01:24:06.589Z,77.22
2022-12-04T01:26:33.577Z,76.44
2022-12-04T01:29:00.616Z,76.08
2022-12-04T01:31:27.633Z,75.62
2022-12-04T01:33:54.545Z,75.73
2022-12-04T01:36:25.818Z,75.17
2022-12-04T01:38:52.818Z,75.11
2022-12-04T01:41:27.611Z,75.73
2022-12-04T01:44:15.875Z,75.62
2022-12-04T01:46:45.977Z,75.61
2022-12-04T01:49:38.387Z,75.66
2022-12-04T01:52:21.839Z,75.64
2022-12-04T01:54:59.380Z,75.61
2022-12-04T01:57:31.445Z,76.22
2022-12-04T02:00:09.953Z,76.08
2022-12-04T02:02:43.634Z,75.94
2022-12-04T02:05:21.820Z,75.64
2022-12-04T02:07:52.045Z,75.75
2022-12-04T02:10:24.398Z,75.75
2022-12-04T02:13:09.538Z,75.10
2022-12-04T02:16:23.302Z,75.22
2022-12-04T02:19:00.725Z,75.70
2022-12-04T02:21:37.919Z,75.64
2022-12-04T02:24:37.200Z,75.47
2022-12-04T02:27:24.856Z,75.57
2022-12-04T02:29:59.984Z,75.68
2022-12-04T02:32:50.579Z,75.58
2022-12-04T02:35:40.311Z,75.62
2022-12-04T02:38:18.666Z,75.57
2022-12-04T02:41:03.276Z,75.63
2022-12-04T02:43:37.729Z,75.77
2022-12-04T02:46:14.071Z,76.09
2022-12-04T02:48:43.219Z,75.71
2022-12-04T02:51:14.929Z,75.77
2022-12-04T02:53:48.641Z,75.83
2022-12-04T02:56:22.647Z,76.00
2022-12-04T02:58:59.197Z,76.08
2022-12-04T03:01:40.706Z,76.12
2022-12-04T03:04:28.318Z,76.29
2022-12-04T03:07:03.255Z,76.31
2022-12-04T03:09:45.376Z,76.20
2022-12-04T03:12:40.235Z,76.00
2022-12-04T03:15:17.402Z,75.85
2022-12-04T03:18:09.489Z,75.91
2022-12-04T03:20:38.810Z,76.67
2022-12-04T03:23:39.685Z,76.38
2022-12-04T03:26:28.738Z,75.95
2022-12-04T03:29:15.827Z,76.66
2022-12-04T03:32:14.307Z,76.18
2022-12-04T03:35:07.762Z,76.55
2022-12-04T03:37:54.361Z,76.61
2022-12-04T03:40:48.775Z,76.48
2022-12-04T03:43:37.737Z,76.42
2022-12-04T03:46:25.017Z,76.15
2022-12-04T03:49:07.292Z,77.03
2022-12-04T03:51:43.692Z,77.12
2022-12-04T03:54:21.692Z,76.20
2022-12-04T03:56:56.291Z,77.22
2022-12-04T03:59:30.354Z,76.03
2022-12-04T04:02:00.508Z,75.96
2022-12-04T04:04:39.473Z,76.27
2022-12-04T04:07:33.553Z,76.11
2022-12-04T04:10:10.940Z,76.17
2022-12-04T04:12:44.226Z,76.00
2022-12-04T04:15:34.942Z,75.89
2022-12-04T04:18:20.801Z,75.96
2022-12-04T04:21:15.834Z,75.87
2022-12-04T04:24:08.584Z,75.45
2022-12-04T04:26:42.405Z,75.79
2022-12-04T04:29:12.413Z,75.48
2022-12-04T04:31:50.366Z,76.03
2022-12-04T04:34:55.311Z,75.52
2022-12-04T04:37:47.888Z,75.43
2022-12-04T04:40:37.265Z,75.51
2022-12-04T04:43:11.031Z,75.54
2022-12-04T04:45:47.951Z,75.96
2022-12-04T04:48:23.736Z,75.78
2022-12-04T04:50:51.025Z,75.49
2022-12-04T04:53:26.940Z,75.35
2022-12-04T04:55:54.204Z,75.20
2022-12-04T04:58:22.002Z,75.07
2022-12-04T05:01:04.244Z,75.78
2022-12-04T05:03:32.048Z,75.89
2022-12-04T05:05:59.345Z,75.54
2022-12-04T05:08:26.423Z,75.34
2022-12-04T05:10:54.012Z,75.29
2022-12-04T05:13:21.959Z,75.57
2022-12-04T05:16:03.359Z,76.20
2022-12-04T05:18:31.207Z,75.88
2022-12-04T05:20:58.184Z,76.11
2022-12-04T05:23:25.687Z,76.13
2022-12-04T05:26:00.978Z,76.33
2022-12-04T05:28:28.427Z,76.29
2022-12-04T05:31:01.438Z,76.07
2022-12-04T05:33:29.088Z,76.01
2022-12-04T05:36:08.440Z,75.83
2022-12-04T05:38:36.078Z,76.14
2022-12-04T05:41:05.677Z,75.95
2022-12-04T05:43:33.151Z,76.10
2022-12-04T05:46:08.141Z,76.08
2022-12-04T05:48:35.976Z,75.90
2022-12-04T05:51:08.177Z,76.81
2022-12-04T05:53:35.435Z,76.73
2022-12-04T05:56:04.320Z,76.52
2022-12-04T05:58:31.671Z,76.62
2022-12-04T06:00:58.467Z,76.62
2022-12-04T06:03:25.341Z,76.61
2022-12-04T06:05:52.273Z,76.52
2022-12-04T06:08:19.182Z,76.66
2022-12-04T06:10:46.049Z,76.38
2022-12-04T06:13:12.972Z,76.02
2022-12-04T06:15:40.572Z,76.15
2022-12-04T06:18:07.749Z,76.30
2022-12-04T06:20:35.031Z,76.72
2022-12-04T06:23:02.039Z,76.51
2022-12-04T06:25:28.979Z,76.68
2022-12-04T06:27:55.989Z,76.06
2022-12-04T06:30:22.951Z,75.87
2022-12-04T06:32:49.893Z,76.19
2022-12-04T06:35:16.866Z,75.90
2022-12-04T06:37:43.681Z,76.11
2022-12-04T06:40:11.037Z,76.29
2022-12-04T06:42:37.866Z,75.87
2022-12-04T06:45:05.460Z,76.10
2022-12-04T06:47:32.342Z,75.90
2022-12-04T06:49:59.353Z,76.26
2022-12-04T06:52:26.267Z,76.16
2022-12-04T06:54:53.196Z,76.34
2022-12-04T06:57:20.014Z,75.97
2022-12-04T06:59:46.789Z,76.09
2022-12-04T07:02:13.760Z,76.06
2022-12-04T07:04:40.693Z,76.16
2022-12-04T07:07:10.089Z,76.03
2022-12-04T07:09:37.271Z,76.19
2022-12-04T07:12:04.444Z,75.99
2022-12-04T07:14:32.194Z,76.23
2022-12-04T07:16:59.042Z,76.24
2022-12-04T07:19:25.933Z,75.99
2022-12-04T07:21:52.724Z,75.67
2022-12-04T07:24:19.609Z,75.93
2022-12-04T07:26:46.538Z,75.79
2022-12-04T07:29:13.614Z,75.61
2022-12-04T07:31:40.762Z,76.08
2022-12-04T07:34:07.913Z,75.68
2022-12-04T07:36:34.749Z,76.23
2022-12-04T07:39:01.627Z,76.30
2022-12-04T07:41:28.435Z,76.28
2022-12-04T07:43:55.339Z,76.36
2022-12-04T07:46:25.758Z,75.91
2022-12-04T07:48:55.280Z,76.67
2022-12-04T07:51:26.063Z,76.26
2022-12-04T07:53:54.808Z,76.64
2022-12-04T07:56:21.893Z,76.22
2022-12-04T07:58:48.799Z,76.55
2022-12-04T08:01:23.016Z,76.00
2022-12-04T08:03:53.013Z,75.89
2022-12-04T08:06:22.347Z,75.19
2022-12-04T08:08:49.967Z,75.84
2022-12-04T08:11:22.376Z,75.67
2022-12-04T08:13:57.606Z,75.93
2022-12-04T08:16:25.829Z,76.05
2022-12-04T08:18:54.127Z,75.91
2022-12-04T08:21:24.954Z,75.70
2022-12-04T08:23:54.316Z,75.88
2022-12-04T08:26:24.264Z,75.78
2022-12-04T08:28:54.470Z,75.83
2022-12-04T08:31:27.884Z,75.20
2022-12-04T08:33:57.378Z,75.60
2022-12-04T08:36:24.840Z,75.53
2022-12-04T08:38:52.272Z,75.65
2022-12-04T08:41:23.902Z,75.92
2022-12-04T08:43:54.447Z,75.57
2022-12-04T08:46:22.503Z,75.47
2022-12-04T08:48:49.526Z,75.59
2022-12-04T08:51:29.674Z,75.83
2022-12-04T08:53:59.494Z,75.58
2022-12-04T08:56:27.841Z,75.46
2022-12-04T08:58:56.639Z,74.79
2022-12-04T09:01:24.069Z,74.79
2022-12-04T09:03:51.059Z,74.76
2022-12-04T09:06:18.332Z,74.01
2022-12-04T09:08:45.277Z,73.97
2022-12-04T09:11:21.860Z,74.82
2022-12-04T09:13:48.944Z,74.80
2022-12-04T09:16:22.553Z,75.00
2022-12-04T09:18:49.723Z,74.96
2022-12-04T09:21:20.199Z,75.21
2022-12-04T09:23:47.380Z,75.18
2022-12-04T09:26:22.019Z,74.91
2022-12-04T09:28:50.233Z,74.92
2022-12-04T09:31:19.014Z,74.69
2022-12-04T09:33:46.347Z,74.35
2022-12-04T09:36:16.301Z,74.41
2022-12-04T09:38:49.977Z,74.50
2022-12-04T09:42:00.136Z,74.47
2022-12-04T09:44:41.059Z,74.30
2022-12-04T09:47:34.386Z,74.32
2022-12-04T09:50:32.840Z,73.98
2022-12-04T09:53:09.062Z,73.87
2022-12-04T09:55:49.309Z,73.90
2022-12-04T09:58:40.028Z,73.51
2022-12-04T10:01:27.546Z,74.38
2022-12-04T10:03:59.877Z,74.05
2022-12-04T10:06:53.688Z,73.97
2022-12-04T10:09:31.797Z,73.54
2022-12-04T10:12:20.237Z,71.58
2022-12-04T10:15:23.500Z,72.27
2022-12-04T10:18:39.311Z,73.18
2022-12-04T10:21:18.275Z,73.23
2022-12-04T10:24:09.512Z,73.08
2022-12-04T10:26:47.083Z,73.14
2022-12-04T10:29:22.961Z,73.41
2022-12-04T10:31:54.862Z,73.71
2022-12-04T10:34:29.541Z,73.10
2022-12-04T10:37:06.805Z,73.48
2022-12-04T10:39:43.088Z,73.03
2022-12-04T10:42:21.538Z,73.49
2022-12-04T10:44:48.360Z,73.35
2022-12-04T10:47:15.427Z,73.06
2022-12-04T10:49:42.840Z,72.37
2022-12-04T10:52:13.597Z,72.79
2022-12-04T10:54:48.740Z,72.49
2022-12-04T10:57:16.392Z,72.09
2022-12-04T10:59:56.198Z,72.58
2022-12-04T11:02:27.986Z,72.46
2022-12-04T11:05:01.775Z,72.23
2022-12-04T11:07:34.382Z,72.42
2022-12-04T11:10:22.928Z,71.88
2022-12-04T11:13:15.981Z,71.34
2022-12-04T11:15:52.552Z,71.59
2022-12-04T11:18:24.463Z,71.88
2022-12-04T11:20:56.484Z,71.53
2022-12-04T11:23:24.349Z,71.87
2022-12-04T11:25:54.714Z,71.69
2022-12-04T11:28:41.097Z,71.78
2022-12-04T11:31:11.168Z,71.97
2022-12-04T11:33:43.671Z,71.80
2022-12-04T11:36:30.820Z,71.77
2022-12-04T11:39:13.487Z,71.90
2022-12-04T11:41:40.424Z,72.22
2022-12-04T11:44:22.390Z,71.50
2022-12-04T11:46:59.093Z,71.63
2022-12-04T11:49:27.589Z,72.09
2022-12-04T11:52:38.855Z,71.55
2022-12-04T11:55:29.118Z,71.80
2022-12-04T11:58:11.191Z,71.55
2022-12-04T12:00:57.417Z,71.17
2022-12-04T12:03:42.729Z,71.10
2022-12-04T12:06:30.634Z,71.64
2022-12-04T12:09:14.251Z,72.00
2022-12-04T12:12:12.342Z,71.74
2022-12-04T12:15:04.076Z,72.11
2022-12-04T12:17:47.835Z,71.89
2022-12-04T12:20:38.259Z,71.71
2022-12-04T12:23:48.803Z,72.49
2022-12-04T12:26:18.318Z,72.50
2022-12-04T12:29:52.456Z,72.46
2022-12-04T12:32:43.455Z,72.94
2022-12-04T12:35:36.373Z,72.37
2022-12-04T12:38:11.121Z,72.88
2022-12-04T12:40:43.398Z,73.15
2022-12-04T12:43:16.697Z,73.18
2022-12-04T12:46:01.282Z,73.78
2022-12-04T12:48:58.591Z,73.32
2022-12-04T12:51:42.256Z,72.93
2022-12-04T12:54:27.226Z,72.90
2022-12-04T12:57:03.174Z,72.80
2022-12-04T12:59:32.441Z,72.82
2022-12-04T13:02:14.140Z,73.12
2022-12-04T13:04:44.603Z,73.04
2022-12-04T13:07:58.086Z,72.73
2022-12-04T13:10:43.883Z,73.26
2022-12-04T13:13:31.050Z,73.37
2022-12-04T13:16:05.350Z,73.65
2022-12-04T13:18:57.036Z,73.49
2022-12-04T13:21:42.447Z,73.57
2022-12-04T13:24:36.220Z,73.88
2022-12-04T13:27:34.752Z,74.02
2022-12-04T13:30:14.907Z,73.74
2022-12-04T13:33:00.059Z,73.94
2022-12-04T13:35:50.427Z,74.79
2022-12-04T13:39:06.890Z,75.28
2022-12-04T13:41:39.141Z,74.95
2022-12-04T13:44:24.311Z,74.44
2022-12-04T13:47:02.610Z,74.63
2022-12-04T13:49:32.554Z,74.79
2022-12-04T13:52:02.546Z,74.63
2022-12-04T13:54:36.523Z,74.38
2022-12-04T13:57:15.380Z,74.76
2022-12-04T13:59:43.484Z,74.70
2022-12-04T14:02:55.574Z,75.12
2022-12-04T14:05:32.811Z,75.50
2022-12-04T14:08:24.341Z,75.17
2022-12-04T14:11:07.355Z,75.99
2022-12-04T14:13:46.126Z,75.69
2022-12-04T14:16:35.885Z,75.75
2022-12-04T14:19:04.304Z,75.72
2022-12-04T14:21:45.636Z,75.89
2022-12-04T14:24:35.995Z,76.02
2022-12-04T14:27:42.809Z,76.78
2022-12-04T14:30:29.653Z,76.50
2022-12-04T14:33:20.933Z,76.50
2022-12-04T14:36:11.491Z,76.88
2022-12-04T14:38:39.352Z,76.78
2022-12-04T14:41:06.481Z,76.75
2022-12-04T14:43:41.431Z,77.14
2022-12-04T14:46:35.078Z,77.44
2022-12-04T14:49:35.759Z,77.01
2022-12-04T14:52:25.608Z,76.75
2022-12-04T14:55:07.587Z,76.63
2022-12-04T14:58:25.004Z,76.48
2022-12-04T15:00:54.994Z,76.51
2022-12-04T15:03:22.771Z,76.22
2022-12-04T15:05:51.271Z,76.16
2022-12-04T15:08:20.270Z,76.19
2022-12-04T15:11:09.686Z,75.87
2022-12-04T15:13:38.616Z,76.06
2022-12-04T15:16:19.335Z,76.00
2022-12-04T15:19:00.650Z,76.10
2022-12-04T15:21:45.901Z,76.18
2022-12-04T15:24:20.172Z,75.93
2022-12-04T15:26:48.532Z,75.91
2022-12-04T15:29:24.047Z,75.74
2022-12-04T15:31:56.884Z,75.67
2022-12-04T15:34:45.626Z,76.77
2022-12-04T15:37:28.996Z,76.33
2022-12-04T15:39:57.530Z,76.60
2022-12-04T15:42:24.576Z,76.66
2022-12-04T15:45:01.935Z,76.48
2022-12-04T15:47:32.892Z,77.37
2022-12-04T15:50:15.830Z,76.84
2022-12-04T15:53:05.414Z,76.92
2022-12-04T15:55:49.885Z,76.60
2022-12-04T15:58:39.161Z,77.46
2022-12-04T16:01:09.722Z,76.74
2022-12-04T16:03:42.667Z,77.16
2022-12-04T16:06:29.175Z,76.77
2022-12-04T16:09:01.379Z,77.05
2022-12-04T16:11:36.626Z,76.57
2022-12-04T16:14:08.092Z,76.49
2022-12-04T16:16:37.508Z,76.72
2022-12-04T16:19:27.556Z,76.81
2022-12-04T16:21:57.883Z,77.16
2022-12-04T16:24:25.167Z,76.76
2022-12-04T16:26:55.260Z,76.74
2022-12-04T16:29:23.558Z,76.79
2022-12-04T16:31:51.095Z,76.66
2022-12-04T16:34:18.264Z,76.70
2022-12-04T16:36:45.248Z,76.66
2022-12-04T16:39:12.068Z,76.11
2022-12-04T16:41:40.132Z,76.20
2022-12-04T16:44:14.925Z,76.20
2022-12-04T16:46:43.084Z,76.84
2022-12-04T16:49:12.924Z,76.65
2022-12-04T16:51:46.114Z,77.05
2022-12-04T16:54:14.037Z,76.81
2022-12-04T16:56:41.717Z,76.01
2022-12-04T16:59:11.956Z,76.29
2022-12-04T17:01:47.500Z,75.87
2022-12-04T17:04:15.565Z,76.46
2022-12-04T17:06:42.655Z,76.38
2022-12-04T17:09:09.804Z,76.29
2022-12-04T17:11:36.706Z,76.49
2022-12-04T17:14:07.051Z,76.81
2022-12-04T17:16:43.310Z,76.91
2022-12-04T17:19:11.596Z,76.50
2022-12-04T17:21:40.252Z,76.33
2022-12-04T17:24:08.260Z,77.08
2022-12-04T17:26:35.143Z,76.50
2022-12-04T17:29:01.951Z,77.19
2022-12-04T17:31:28.896Z,76.24
2022-12-04T17:33:56.903Z,76.64
2022-12-04T17:36:27.513Z,76.86
2022-12-04T17:38:57.766Z,76.35
2022-12-04T17:41:25.420Z,76.42
2022-12-04T17:43:52.308Z,76.38
2022-12-04T17:46:22.809Z,76.15
2022-12-04T17:48:50.019Z,76.32
2022-12-04T17:51:22.831Z,76.05
2022-12-04T17:53:49.859Z,75.70
2022-12-04T17:56:22.495Z,75.51
2022-12-04T17:58:50.574Z,75.33
2022-12-04T18:01:24.697Z,75.56
2022-12-04T18:04:01.959Z,75.63
2022-12-04T18:06:39.023Z,75.22
2022-12-04T18:09:08.882Z,75.61
2022-12-04T18:11:38.326Z,75.60
2022-12-04T18:14:12.330Z,75.08
2022-12-04T18:16:44.501Z,75.41
2022-12-04T18:19:12.709Z,75.38
2022-12-04T18:21:40.350Z,75.44
2022-12-04T18:24:07.791Z,75.20
2022-12-04T18:26:45.934Z,75.42
2022-12-04T18:29:18.050Z,75.44
2022-12-04T18:31:46.262Z,75.95
2022-12-04T18:34:13.854Z,75.81
2022-12-04T18:36:42.571Z,75.42
2022-12-04T18:39:15.270Z,75.19
2022-12-04T18:41:42.617Z,75.04
2022-12-04T18:44:10.688Z,75.36
2022-12-04T18:46:38.593Z,75.23
2022-12-04T18:49:07.012Z,75.04
2022-12-04T18:51:40.307Z,74.94
2022-12-04T18:54:22.819Z,75.17
2022-12-04T18:56:50.643Z,75.42
2022-12-04T18:59:21.288Z,75.31
2022-12-04T19:01:50.375Z,74.94
2022-12-04T19:04:19.323Z,75.65
2022-12-04T19:06:53.635Z,75.22
2022-12-04T19:09:47.274Z,75.50
2022-12-04T19:12:12.910Z,75.57
2022-12-04T19:14:40.048Z,75.42
2022-12-04T19:17:07.386Z,75.68
2022-12-04T19:19:34.322Z,75.97
2022-12-04T19:22:02.039Z,76.15
2022-12-04T19:24:28.880Z,76.03
2022-12-04T19:26:56.761Z,76.46
2022-12-04T19:29:23.789Z,75.92
2022-12-04T19:31:54.680Z,75.53
2022-12-04T19:34:24.628Z,75.64
2022-12-04T19:36:53.998Z,76.43
2022-12-04T19:39:20.835Z,75.74
2022-12-04T19:41:47.688Z,75.57
2022-12-04T19:44:46.704Z,75.45
2022-12-04T19:47:01.633Z,76.28
2022-12-04T19:49:29.559Z,75.46
2022-12-04T19:51:56.431Z,75.58
2022-12-04T19:54:23.774Z,74.96
2022-12-04T19:56:52.485Z,75.72
2022-12-04T19:59:20.418Z,75.66
2022-12-04T20:01:47.574Z,75.46
2022-12-04T20:04:14.523Z,75.22
2022-12-04T20:06:44.539Z,75.00
2022-12-04T20:09:20.174Z,75.05
2022-12-04T20:11:47.602Z,75.17
2022-12-04T20:14:14.495Z,74.96
2022-12-04T20:16:42.008Z,75.54
2022-12-04T20:19:14.941Z,74.79
2022-12-04T20:21:42.724Z,74.67
2022-12-04T20:24:14.618Z,75.25
2022-12-04T20:26:43.902Z,74.81
2022-12-04T20:29:14.647Z,74.59
2022-12-04T20:31:45.096Z,74.65
2022-12-04T20:34:16.306Z,74.33
2022-12-04T20:36:45.458Z,74.49
2022-12-04T20:39:13.971Z,75.46
2022-12-04T20:41:41.336Z,74.49
2022-12-04T20:44:13.243Z,75.28
2022-12-04T20:46:40.646Z,74.93
2022-12-04T20:49:17.223Z,75.56
2022-12-04T20:51:47.976Z,75.65
2022-12-04T20:54:18.568Z,75.02
2022-12-04T20:56:48.495Z,75.45
2022-12-04T20:59:16.426Z,74.82
2022-12-04T21:01:43.556Z,75.73
2022-12-04T21:04:12.729Z,75.32
2022-12-04T21:06:40.965Z,74.68
2022-12-04T21:09:18.255Z,74.59
2022-12-04T21:11:49.135Z,75.03
2022-12-04T21:14:41.996Z,74.60
2022-12-04T21:17:14.368Z,74.24
2022-12-04T21:19:41.182Z,74.76
2022-12-04T21:22:08.718Z,74.08
2022-12-04T21:24:38.454Z,74.50
2022-12-04T21:27:13.290Z,73.74
2022-12-04T21:29:43.559Z,74.61
2022-12-04T21:32:10.387Z,75.17
2022-12-04T21:34:37.175Z,74.38
2022-12-04T21:37:04.063Z,74.21
2022-12-04T21:39:30.913Z,74.89
2022-12-04T21:42:16.232Z,74.46
2022-12-04T21:44:43.064Z,74.73
2022-12-04T21:47:09.980Z,74.46
2022-12-04T21:49:37.005Z,74.81
2022-12-04T21:52:03.828Z,74.32
2022-12-04T21:54:30.922Z,75.31
2022-12-04T21:56:58.612Z,76.20
2022-12-04T21:59:26.285Z,74.95
2022-12-04T22:01:54.038Z,74.61
2022-12-04T22:04:21.782Z,74.82
2022-12-04T22:06:48.983Z,74.18
2022-12-04T22:09:15.805Z,74.36
2022-12-04T22:11:43.848Z,74.49
2022-12-04T22:14:11.734Z,74.65
2022-12-04T22:16:42.907Z,74.58
2022-12-04T22:19:11.973Z,76.31
2022-12-04T22:21:39.693Z,75.52
2022-12-04T22:24:07.452Z,75.30
2022-12-04T22:26:34.413Z,75.12
2022-12-04T22:29:01.967Z,75.08
2022-12-04T22:31:31.437Z,75.29
2022-12-04T22:34:00.611Z,75.86
2022-12-04T22:36:32.981Z,74.90
2022-12-04T22:39:15.209Z,75.25
2022-12-04T22:41:42.002Z,76.80
2022-12-04T22:44:08.833Z,76.09
2022-12-04T22:46:35.728Z,76.03
2022-12-04T22:49:02.611Z,75.83
2022-12-04T22:51:30.011Z,75.59
2022-12-04T22:53:58.255Z,75.47
2022-12-04T22:56:30.876Z,75.13
2022-12-04T22:58:58.917Z,75.30
2022-12-04T23:01:32.499Z,75.62
2022-12-04T23:04:01.004Z,75.82
2022-12-04T23:06:30.694Z,75.03
2022-12-04T23:09:06.377Z,75.80
2022-12-04T23:11:33.978Z,76.75
2022-12-04T23:14:04.938Z,77.15
2022-12-04T23:16:35.216Z,76.74
2022-12-04T23:19:02.683Z,76.19
2022-12-04T23:21:29.610Z,75.46
2022-12-04T23:23:57.201Z,75.26
2022-12-04T23:26:30.094Z,74.54
2022-12-04T23:28:57.773Z,74.54
2022-12-04T23:31:25.334Z,75.13
2022-12-04T23:33:52.268Z,75.66
2022-12-04T23:36:19.149Z,75.06
2022-12-04T23:38:46.251Z,74.61
2022-12-04T23:41:22.832Z,74.68
2022-12-04T23:43:50.974Z,75.25
2022-12-04T23:46:23.992Z,76.05
2022-12-04T23:48:50.846Z,74.77
2022-12-04T23:51:19.341Z,75.24
2022-12-04T23:53:47.040Z,75.16
2022-12-04T23:56:19.158Z,74.48
2022-12-04T23:58:49.036Z,75.30
